Time;durP1;ratioP1;P1;durP2;ratioP2;P2;SDS_P1;SDS_P2;PMS_P1;PMS_P2;Temp;Humidity;BMP_temperature;BMP_pressure;BME280_temperature;BME280_humidity;BME280_pressure;Samples;Min_cycle;Max_cycle;Signal;HPM_P1;HPM_P2
2022/01/25 00:08:38;;;;;;;20.27;14.13;;;2.80;1.00;;;;;;5140669;27;20437;-54
2022/01/25 00:25:07;;;;;;;16.70;15.00;;;2.80;1.00;;;;;;5139873;27;20445;-54
2022/01/25 00:27:47;;;;;;;22.63;15.30;;;2.80;1.00;;;;;;5133363;27;20735;-58
2022/01/25 00:30:29;;;;;;;20.43;15.17;;;2.80;1.00;;;;;;5139822;27;20755;-58
2022/01/25 00:32:56;;;;;;;19.23;15.90;;;2.80;1.00;;;;;;5139916;27;20459;-51
2022/01/25 00:35:27;;;;;;;20.23;15.80;;;2.80;1.00;;;;;;5136655;27;20464;-55
2022/01/25 00:37:55;;;;;;;17.17;14.73;;;2.80;1.00;;;;;;5119797;28;20540;-58
2022/01/25 00:40:22;;;;;;;18.43;15.40;;;2.70;1.00;;;;;;5121836;27;20473;-55
2022/01/25 00:42:49;;;;;;;18.80;14.93;;;2.80;1.00;;;;;;5126990;27;20437;-53
2022/01/25 00:45:19;;;;;;;23.83;16.73;;;2.80;1.00;;;;;;5119791;27;20446;-55
2022/01/25 00:47:49;;;;;;;21.93;15.63;;;2.70;1.00;;;;;;5119595;28;20460;-57
2022/01/25 00:50:16;;;;;;;18.10;14.07;;;2.70;1.00;;;;;;5119600;28;20433;-53
2022/01/25 00:55:31;;;;;;;18.33;15.40;;;2.70;1.00;;;;;;5139062;27;20507;-58
2022/01/25 00:57:58;;;;;;;18.10;15.80;;;2.70;1.00;;;;;;5139872;27;20469;-59
2022/01/25 01:00:25;;;;;;;20.00;17.10;;;2.80;1.00;;;;;;5138836;27;20510;-58
2022/01/25 01:02:56;;;;;;;25.57;15.80;;;2.70;1.00;;;;;;5139259;27;20490;-55
2022/01/25 01:05:24;;;;;;;20.97;16.33;;;2.80;1.00;;;;;;5139326;27;20458;-52
2022/01/25 01:07:53;;;;;;;23.20;16.20;;;2.70;1.00;;;;;;5133257;27;20433;-55
2022/01/25 01:10:25;;;;;;;18.70;15.60;;;2.70;1.00;;;;;;5119642;27;20802;-55
2022/01/25 01:13:39;;;;;;;21.47;16.10;;;2.70;1.00;;;;;;5134820;27;20458;-58
2022/01/25 01:16:29;;;;;;;21.47;16.30;;;2.70;1.00;;;;;;5132507;27;20461;-56
2022/01/25 01:30:00;;;;;;;22.57;16.27;;;2.60;27.10;;;;;;5136625;27;20493;-53
2022/01/25 01:32:58;;;;;;;22.77;17.80;;;2.60;49.30;;;;;;5126105;27;20437;-57
2022/01/25 01:35:39;;;;;;;22.73;16.47;;;2.60;39.10;;;;;;5132068;27;20984;-56
2022/01/25 01:38:22;;;;;;;24.13;16.03;;;2.60;23.40;;;;;;5139382;27;20488;-55
2022/01/25 01:41:17;;;;;;;22.73;17.27;;;2.50;1.00;;;;;;5137712;27;20899;-55
2022/01/25 01:43:52;;;;;;;24.07;17.83;;;2.60;1.00;;;;;;5137312;27;20543;-54
2022/01/25 01:46:30;;;;;;;29.67;19.40;;;2.60;1.00;;;;;;5138617;27;20433;-54
2022/01/25 01:49:02;;;;;;;27.80;18.53;;;2.60;1.00;;;;;;5139234;27;20440;-58
2022/01/25 01:51:33;;;;;;;25.47;18.87;;;2.60;1.00;;;;;;5137725;27;20467;-54
2022/01/25 01:54:02;;;;;;;24.37;19.20;;;2.60;1.00;;;;;;5135859;27;20458;-55
2022/01/25 01:56:31;;;;;;;24.90;17.03;;;2.60;1.00;;;;;;5126625;27;20968;-52
2022/01/25 01:59:00;;;;;;;26.57;18.50;;;2.60;1.00;;;;;;5138619;27;20747;-57
2022/01/25 02:01:29;;;;;;;26.87;18.20;;;2.60;1.00;;;;;;5137951;27;20554;-58
2022/01/25 02:03:58;;;;;;;31.07;18.93;;;2.60;1.00;;;;;;5138194;27;20498;-55
2022/01/25 02:06:25;;;;;;;29.80;19.23;;;2.60;1.00;;;;;;5138946;27;20501;-55
2022/01/25 02:08:52;;;;;;;29.30;19.33;;;2.60;1.00;;;;;;5138368;27;20458;-57
2022/01/25 02:11:22;;;;;;;24.73;17.83;;;2.50;1.00;;;;;;5138379;27;20887;-51
2022/01/25 02:13:50;;;;;;;25.83;18.60;;;2.50;8.50;;;;;;5138555;27;20439;-58
2022/01/25 02:16:32;;;;;;;24.50;17.47;;;2.50;40.40;;;;;;5138152;27;20511;-56
2022/01/25 02:24:31;;;;;;;28.87;18.77;;;2.60;99.90;;;;;;5137464;27;20732;-53
2022/01/25 02:26:58;;;;;;;26.37;17.87;;;2.50;93.70;;;;;;5138391;27;20801;-54
2022/01/25 02:29:25;;;;;;;27.73;18.53;;;2.60;99.90;;;;;;5137546;27;20497;-57
2022/01/25 02:31:53;;;;;;;26.73;17.13;;;2.60;52.40;;;;;;5135714;27;20506;-55
2022/01/25 02:34:20;;;;;;;33.20;20.50;;;2.50;2.10;;;;;;5117592;28;20479;-57
2022/01/25 02:36:57;;;;;;;29.40;19.07;;;2.50;1.00;;;;;;5132277;28;20429;-54
2022/01/25 02:39:24;;;;;;;29.30;18.50;;;2.50;1.00;;;;;;5137626;28;20869;-57
2022/01/25 02:41:52;;;;;;;25.87;16.73;;;2.40;1.00;;;;;;5137986;28;20489;-56
2022/01/25 02:44:24;;;;;;;30.23;18.73;;;2.40;1.00;;;;;;5138620;28;20522;-54
2022/01/25 02:49:38;;;;;;;29.10;19.27;;;2.40;25.70;;;;;;5137645;28;20576;-56
2022/01/25 02:52:07;;;;;;;27.60;17.60;;;2.40;68.90;;;;;;5137975;28;20905;-53
2022/01/25 02:54:35;;;;;;;30.63;17.87;;;2.40;52.00;;;;;;5137926;28;20595;-55
2022/01/25 02:57:02;;;;;;;27.77;18.17;;;2.40;43.80;;;;;;5131195;28;20490;-58
2022/01/25 02:59:29;;;;;;;28.80;17.53;;;2.30;86.70;;;;;;5128866;28;20469;-58
2022/01/25 03:01:56;;;;;;;31.77;18.20;;;2.40;87.50;;;;;;5137088;28;20482;-56
2022/01/25 03:04:23;;;;;;;24.33;17.63;;;2.30;81.80;;;;;;5121800;28;20786;-58
2022/01/25 03:06:51;;;;;;;26.00;18.47;;;2.30;70.20;;;;;;5117165;28;20459;-54
2022/01/25 03:09:22;;;;;;;24.53;17.30;;;2.30;97.90;;;;;;5117247;28;20810;-58
2022/01/25 03:11:52;;;;;;;28.07;18.17;;;2.20;99.90;;;;;;5133565;28;20513;-56
2022/01/25 03:14:21;;;;;;;25.53;16.10;;;2.30;99.90;;;;;;5137842;27;20922;-58
2022/01/25 03:17:04;;;;;;;27.50;16.97;;;2.30;99.90;;;;;;5137636;28;20463;-57
2022/01/25 03:19:46;;;;;;;23.53;16.53;;;2.30;99.90;;;;;;5130718;27;20466;-54
2022/01/25 03:22:18;;;;;;;27.10;17.33;;;2.30;99.90;;;;;;5132191;28;20810;-55
2022/01/25 03:24:50;;;;;;;23.17;15.77;;;2.30;99.90;;;;;;5137723;28;20454;-57
2022/01/25 03:27:16;;;;;;;27.97;16.63;;;2.30;69.70;;;;;;5136944;28;20443;-53
2022/01/25 03:29:43;;;;;;;29.63;17.80;;;2.30;3.90;;;;;;5137198;28;20757;-56
2022/01/25 03:32:10;;;;;;;28.07;16.77;;;2.30;1.00;;;;;;5136973;28;20486;-56
2022/01/25 03:34:37;;;;;;;29.10;17.10;;;2.20;1.00;;;;;;5136101;28;20513;-54
2022/01/25 03:37:07;;;;;;;32.50;19.47;;;2.10;1.00;;;;;;5136642;28;20450;-58
2022/01/25 03:39:34;;;;;;;28.30;18.83;;;2.20;1.00;;;;;;5135452;28;20497;-57
2022/01/25 03:42:07;;;;;;;23.27;16.63;;;2.20;1.00;;;;;;5138724;27;20493;-57
2022/01/25 03:44:34;;;;;;;26.93;17.53;;;2.20;1.00;;;;;;5141092;27;20556;-55
2022/01/25 03:47:05;;;;;;;26.93;18.10;;;2.10;1.00;;;;;;5141357;27;21099;-58
2022/01/25 03:49:50;;;;;;;27.07;16.77;;;2.20;1.00;;;;;;5141527;27;20459;-57
2022/01/25 03:52:23;;;;;;;22.90;15.93;;;2.10;1.00;;;;;;5141382;27;20939;-56
2022/01/25 03:54:50;;;;;;;24.63;16.37;;;2.10;1.00;;;;;;5141278;27;20485;-55
2022/01/25 03:57:19;;;;;;;22.60;16.03;;;2.20;1.00;;;;;;5140852;27;20497;-57
2022/01/25 03:59:47;;;;;;;25.00;15.70;;;2.20;1.00;;;;;;5134558;27;20462;-58
2022/01/25 04:02:14;;;;;;;27.33;16.27;;;2.20;1.00;;;;;;5139788;27;20474;-57
2022/01/25 04:04:41;;;;;;;26.83;16.97;;;2.20;1.00;;;;;;5136992;27;20462;-55
2022/01/25 04:07:11;;;;;;;25.47;16.13;;;2.20;1.00;;;;;;5137625;27;20574;-50
2022/01/25 04:09:39;;;;;;;31.17;16.50;;;2.20;1.00;;;;;;5140504;27;20455;-56
2022/01/25 04:12:13;;;;;;;24.60;16.47;;;2.20;99.90;;;;;;5140817;27;20486;-59
2022/01/25 04:14:41;;;;;;;22.57;14.87;;;2.20;99.90;;;;;;5140487;27;20433;-57
2022/01/25 04:17:11;;;;;;;23.73;14.97;;;2.20;99.90;;;;;;5140643;27;20778;-56
2022/01/25 04:19:42;;;;;;;28.73;14.73;;;2.10;99.90;;;;;;5140717;27;20462;-58
2022/01/25 04:25:07;;;;;;;26.07;15.90;;;2.20;99.90;;;;;;5127930;27;20767;-56
2022/01/25 04:27:34;;;;;;;22.40;15.67;;;2.10;1.00;;;;;;5141011;27;20462;-57
2022/01/25 04:30:05;;;;;;;23.00;14.70;;;2.10;1.00;;;;;;5141073;27;20454;-58
2022/01/25 04:32:40;;;;;;;25.70;15.70;;;2.00;99.90;;;;;;5139481;27;20458;-58
2022/01/25 04:35:14;;;;;;;23.90;15.20;;;2.00;1.00;;;;;;5138634;27;20521;-57
2022/01/25 04:49:02;;;;;;;23.33;15.00;;;2.00;1.00;;;;;;5138611;27;20442;-55
2022/01/25 04:51:44;;;;;;;26.27;16.53;;;2.00;1.00;;;;;;5139880;27;20532;-57
2022/01/25 04:54:19;;;;;;;21.93;15.17;;;1.90;99.90;;;;;;5140184;27;20458;-54
2022/01/25 04:56:54;;;;;;;23.67;15.77;;;1.90;99.90;;;;;;5139994;27;20462;-57
2022/01/25 04:59:26;;;;;;;24.90;14.60;;;1.90;1.00;;;;;;5139888;27;20960;-55
2022/01/25 05:02:01;;;;;;;19.63;13.93;;;2.00;1.00;;;;;;5139277;27;20558;-57
2022/01/25 05:04:36;;;;;;;23.40;14.47;;;2.00;1.00;;;;;;5127717;27;20911;-56
2022/01/25 05:07:13;;;;;;;22.50;14.13;;;2.00;1.00;;;;;;5139244;27;20466;-56
2022/01/25 05:09:43;;;;;;;23.83;14.67;;;1.90;1.00;;;;;;5139884;27;20471;-58
2022/01/25 05:12:11;;;;;;;24.13;14.33;;;1.90;99.90;;;;;;5139641;27;20753;-57
2022/01/25 05:14:55;;;;;;;25.30;16.17;;;1.80;99.90;;;;;;5138236;27;20462;-55
2022/01/25 05:17:32;;;;;;;27.57;14.93;;;1.80;1.00;;;;;;5138948;27;20454;-57
2022/01/25 05:22:39;;;;;;;24.07;14.93;;;1.80;1.00;;;;;;5139116;27;20420;-56
2022/01/25 05:25:07;;;;;;;23.70;14.70;;;1.80;1.00;;;;;;5137821;27;20451;-58
2022/01/25 05:27:34;;;;;;;22.10;15.63;;;1.70;1.00;;;;;;5138419;27;20899;-56
2022/01/25 05:30:01;;;;;;;25.10;14.53;;;1.70;1.00;;;;;;5138414;27;20455;-55
2022/01/25 05:32:32;;;;;;;21.33;14.97;;;1.80;1.00;;;;;;5139014;27;20482;-55
2022/01/25 05:35:00;;;;;;;26.37;17.10;;;1.80;1.00;;;;;;5138591;27;20461;-53
2022/01/25 05:37:27;;;;;;;30.43;16.70;;;1.80;1.00;;;;;;5125942;27;20432;-54
2022/01/25 05:39:54;;;;;;;24.03;15.03;;;1.70;1.00;;;;;;5139354;27;20478;-58
2022/01/25 05:42:46;;;;;;;21.73;14.10;;;1.70;1.00;;;;;;5139322;27;20455;-55
2022/01/25 05:45:21;;;;;;;25.83;13.83;;;1.60;1.00;;;;;;5117952;28;20463;-57
2022/01/25 05:47:49;;;;;;;23.90;15.40;;;1.60;1.00;;;;;;5135973;27;20508;-58
2022/01/25 05:50:16;;;;;;;20.60;13.53;;;1.60;1.00;;;;;;5137971;27;20874;-55
2022/01/25 05:52:43;;;;;;;22.33;15.37;;;1.70;1.00;;;;;;5138679;27;20428;-55
2022/01/25 05:55:11;;;;;;;21.20;14.13;;;1.70;1.00;;;;;;5135423;27;20496;-57
2022/01/25 05:57:38;;;;;;;22.03;13.20;;;1.70;1.00;;;;;;5134337;27;20501;-55
2022/01/25 06:00:08;;;;;;;22.40;14.97;;;1.60;1.00;;;;;;5138763;27;20433;-56
2022/01/25 06:02:38;;;;;;;25.27;15.17;;;1.60;1.00;;;;;;5132678;27;20467;-58
2022/01/25 06:05:08;;;;;;;38.60;18.07;;;1.60;1.00;;;;;;5138294;27;20517;-56
2022/01/25 06:07:35;;;;;;;53.13;33.20;;;1.70;1.00;;;;;;5137466;27;20512;-56
2022/01/25 06:10:03;;;;;;;30.33;18.50;;;1.70;1.00;;;;;;5131170;27;20455;-57
2022/01/25 06:12:30;;;;;;;26.60;17.37;;;1.70;1.00;;;;;;5127152;27;20455;-58
2022/01/25 06:14:57;;;;;;;22.07;14.90;;;1.70;1.00;;;;;;5132708;27;20494;-56
2022/01/25 06:17:24;;;;;;;22.13;15.10;;;1.70;1.00;;;;;;5138482;27;20501;-55
2022/01/25 06:19:53;;;;;;;24.43;15.87;;;1.70;1.00;;;;;;5138135;27;20530;-57
2022/01/25 06:22:22;;;;;;;26.27;15.60;;;1.70;1.00;;;;;;5138351;27;20553;-58
2022/01/25 06:24:48;;;;;;;22.37;13.80;;;1.70;1.00;;;;;;5133258;27;20466;-57
2022/01/25 06:27:15;;;;;;;25.00;14.67;;;1.80;1.00;;;;;;5131428;27;20827;-57
2022/01/25 06:29:42;;;;;;;24.43;14.67;;;1.70;99.90;;;;;;5135799;27;20550;-56
2022/01/25 06:32:09;;;;;;;23.23;15.17;;;1.70;99.90;;;;;;5138571;27;20854;-57
2022/01/25 06:34:39;;;;;;;25.80;16.43;;;1.70;99.90;;;;;;5137282;27;20519;-55
2022/01/25 06:37:06;;;;;;;30.23;17.33;;;1.70;1.00;;;;;;5137361;27;20557;-60
2022/01/25 06:39:34;;;;;;;25.73;15.77;;;1.70;1.00;;;;;;5137464;28;20514;-59
2022/01/25 06:42:01;;;;;;;30.37;16.47;;;1.70;1.00;;;;;;5137956;27;20851;-57
2022/01/25 06:44:28;;;;;;;24.20;14.17;;;1.70;1.00;;;;;;5134613;28;20486;-59
2022/01/25 06:46:58;;;;;;;27.33;14.17;;;1.70;1.00;;;;;;5136701;28;20462;-60
2022/01/25 06:49:25;;;;;;;24.97;14.60;;;1.60;99.90;;;;;;5136561;28;20458;-60
2022/01/25 06:51:52;;;;;;;27.47;15.70;;;1.70;99.90;;;;;;5136353;28;20930;-60
2022/01/25 06:54:19;;;;;;;25.70;14.77;;;1.60;99.90;;;;;;5136948;28;20433;-60
2022/01/25 06:56:50;;;;;;;29.20;15.97;;;1.60;1.00;;;;;;5136949;28;20501;-60
2022/01/25 06:59:20;;;;;;;28.63;15.27;;;1.70;1.00;;;;;;5137616;28;20569;-60
2022/01/25 07:01:49;;;;;;;30.00;16.20;;;1.70;1.00;;;;;;5136996;28;20494;-58
2022/01/25 07:04:16;;;;;;;28.20;17.70;;;1.70;1.00;;;;;;5137525;27;20493;-59
2022/01/25 07:06:46;;;;;;;26.33;15.27;;;1.70;1.00;;;;;;5136727;28;20482;-59
2022/01/25 07:09:13;;;;;;;28.60;16.63;;;1.70;1.00;;;;;;5135244;28;20496;-59
2022/01/25 07:11:40;;;;;;;26.73;16.20;;;1.70;1.00;;;;;;5135308;28;20482;-57
2022/01/25 07:14:12;;;;;;;32.27;18.43;;;1.70;1.00;;;;;;5137130;28;20920;-57
2022/01/25 07:16:39;;;;;;;31.37;16.60;;;1.70;1.00;;;;;;5135368;27;20463;-59
2022/01/25 07:19:06;;;;;;;31.30;18.83;;;1.60;99.90;;;;;;5135374;27;20575;-58
2022/01/25 07:21:33;;;;;;;32.93;18.87;;;1.60;1.00;;;;;;5131945;27;20532;-59
2022/01/25 07:24:00;;;;;;;31.50;19.30;;;1.60;1.00;;;;;;5123187;27;20790;-58
2022/01/25 07:26:30;;;;;;;29.73;17.53;;;1.60;1.00;;;;;;5141617;27;20755;-58
2022/01/25 07:28:57;;;;;;;29.37;16.93;;;1.70;1.00;;;;;;5141333;27;20497;-58
2022/01/25 07:31:25;;;;;;;32.00;17.50;;;1.60;1.00;;;;;;5139261;27;20490;-58
2022/01/25 07:33:52;;;;;;;30.80;17.93;;;1.70;1.00;;;;;;5141080;27;20465;-59
2022/01/25 07:36:22;;;;;;;37.47;18.47;;;1.70;1.00;;;;;;5141006;27;20463;-56
2022/01/25 07:38:49;;;;;;;32.70;18.87;;;1.60;99.90;;;;;;5140449;27;20950;-59
2022/01/25 07:41:16;;;;;;;27.70;16.47;;;1.50;99.90;;;;;;5140808;27;20490;-59
2022/01/25 07:43:43;;;;;;;26.40;17.80;;;1.50;99.90;;;;;;5141273;27;20508;-59
2022/01/25 07:46:10;;;;;;;56.53;32.37;;;1.60;1.00;;;;;;5139138;27;20433;-58
2022/01/25 07:48:38;;;;;;;46.00;26.20;;;1.60;1.00;;;;;;5131445;27;20463;-57
2022/01/25 07:51:05;;;;;;;34.97;21.17;;;1.70;1.00;;;;;;5135404;27;20511;-60
2022/01/25 07:53:37;;;;;;;47.33;27.30;;;1.70;1.00;;;;;;5140224;27;20461;-58
2022/01/25 07:56:04;;;;;;;42.67;25.40;;;1.60;99.90;;;;;;5140989;27;20542;-58
2022/01/25 07:58:31;;;;;;;36.50;20.70;;;1.50;99.90;;;;;;5139003;27;20487;-59
2022/01/25 08:00:59;;;;;;;38.07;21.77;;;1.50;1.00;;;;;;5134558;27;20459;-58
2022/01/25 08:03:26;;;;;;;35.80;20.77;;;1.60;1.00;;;;;;5141101;27;20486;-58
2022/01/25 08:05:54;;;;;;;32.57;20.70;;;1.70;1.00;;;;;;5141063;27;20884;-58
2022/01/25 08:08:22;;;;;;;37.90;21.80;;;1.70;1.00;;;;;;5137554;27;20519;-58
2022/01/25 08:10:49;;;;;;;37.73;21.87;;;1.70;1.00;;;;;;5134016;27;20462;-59
2022/01/25 08:13:16;;;;;;;37.60;22.73;;;1.70;1.00;;;;;;5140878;27;20534;-58
2022/01/25 08:15:46;;;;;;;40.97;24.30;;;1.60;1.00;;;;;;5140320;27;20482;-59
2022/01/25 08:18:15;;;;;;;29.33;17.80;;;1.60;1.00;;;;;;5140589;27;20455;-59
2022/01/25 08:20:44;;;;;;;32.77;18.67;;;1.70;1.00;;;;;;5140050;27;20933;-59
2022/01/25 08:23:17;;;;;;;34.10;18.90;;;1.70;1.00;;;;;;5140613;27;20471;-58
2022/01/25 08:25:47;;;;;;;33.00;19.27;;;1.70;1.00;;;;;;5140155;27;20501;-57
2022/01/25 08:28:14;;;;;;;28.73;17.03;;;1.70;1.00;;;;;;5140299;27;20482;-56
2022/01/25 08:30:41;;;;;;;31.37;16.80;;;1.80;1.00;;;;;;5140258;27;20846;-57
2022/01/25 08:33:10;;;;;;;30.70;17.40;;;1.80;1.00;;;;;;5140530;27;20494;-58
2022/01/25 08:35:37;;;;;;;30.77;17.40;;;1.80;1.00;;;;;;5138966;27;20578;-58
2022/01/25 08:38:04;;;;;;;29.90;18.53;;;1.80;99.90;;;;;;5132137;27;20517;-59
2022/01/25 08:40:34;;;;;;;26.93;17.00;;;1.90;99.90;;;;;;5135324;27;20538;-57
2022/01/25 08:43:01;;;;;;;27.73;17.90;;;1.90;4.20;;;;;;5125824;27;20426;-59
2022/01/25 08:45:29;;;;;;;28.67;17.53;;;1.90;1.00;;;;;;5138829;27;20495;-58
2022/01/25 08:47:56;;;;;;;28.63;16.93;;;1.90;1.00;;;;;;5138653;27;20494;-58
2022/01/25 08:50:26;;;;;;;28.90;18.00;;;1.90;1.00;;;;;;5139956;27;20451;-58
2022/01/25 08:52:53;;;;;;;31.40;17.77;;;1.90;1.00;;;;;;5139625;27;20791;-59
2022/01/25 08:55:26;;;;;;;38.53;22.30;;;1.90;14.10;;;;;;5139810;27;20493;-60
2022/01/25 08:57:54;;;;;;;39.40;20.37;;;1.90;23.60;;;;;;5139534;27;20433;-57
2022/01/25 09:00:21;;;;;;;32.70;19.77;;;1.90;1.00;;;;;;5138561;27;20547;-58
2022/01/25 09:02:54;;;;;;;31.13;18.47;;;2.00;1.00;;;;;;5137719;27;20903;-59
2022/01/25 09:05:21;;;;;;;30.63;18.90;;;2.00;99.90;;;;;;5132326;27;20467;-59
2022/01/25 09:07:49;;;;;;;33.23;19.73;;;2.10;99.90;;;;;;5129719;27;20599;-58
2022/01/25 09:10:16;;;;;;;26.50;17.17;;;2.00;1.00;;;;;;5139578;27;20466;-59
2022/01/25 09:12:49;;;;;;;40.97;25.73;;;2.10;99.90;;;;;;5137642;27;20507;-59
2022/01/25 09:15:17;;;;;;;33.73;18.60;;;2.10;99.90;;;;;;5138480;27;20545;-59
2022/01/25 09:17:44;;;;;;;39.13;21.57;;;2.10;99.90;;;;;;5137839;27;20547;-59
2022/01/25 09:20:12;;;;;;;65.80;37.50;;;2.00;99.90;;;;;;5138205;27;20525;-57
2022/01/25 09:22:44;;;;;;;42.80;24.50;;;2.00;99.90;;;;;;5134991;27;20467;-56
2022/01/25 09:25:13;;;;;;;45.33;24.17;;;2.00;1.00;;;;;;5138066;27;20462;-56
2022/01/25 09:27:40;;;;;;;42.20;25.40;;;2.10;99.90;;;;;;5137955;27;20452;-59
2022/01/25 09:30:08;;;;;;;37.57;23.33;;;2.10;99.90;;;;;;5137844;27;20820;-58
2022/01/25 09:32:39;;;;;;;40.40;23.50;;;2.10;1.00;;;;;;5137477;27;20490;-58
2022/01/25 09:35:06;;;;;;;42.37;22.00;;;2.00;1.00;;;;;;5136136;27;20485;-59
2022/01/25 09:37:33;;;;;;;38.37;22.10;;;2.10;24.70;;;;;;5137583;27;20498;-59
2022/01/25 09:40:03;;;;;;;43.63;21.20;;;2.10;1.00;;;;;;5136581;27;20572;-58
2022/01/25 09:42:30;;;;;;;35.33;20.80;;;2.10;99.90;;;;;;5137585;27;20520;-58
2022/01/25 09:44:58;;;;;;;39.47;22.80;;;2.20;99.90;;;;;;5136966;27;20458;-57
2022/01/25 09:47:26;;;;;;;35.37;22.17;;;2.20;1.00;;;;;;5137926;27;20458;-59
2022/01/25 09:49:55;;;;;;;40.20;22.70;;;2.20;1.00;;;;;;5137593;27;20472;-58
2022/01/25 09:52:27;;;;;;;42.30;21.37;;;2.30;2.90;;;;;;5135442;27;20952;-57
2022/01/25 09:54:55;;;;;;;34.90;20.80;;;2.20;1.00;;;;;;5137118;27;20511;-60
2022/01/25 09:57:22;;;;;;;34.87;21.20;;;2.20;1.00;;;;;;5137465;27;20506;-58
2022/01/25 09:59:49;;;;;;;36.40;21.90;;;2.10;1.00;;;;;;5137457;27;20538;-59
2022/01/25 10:02:40;;;;;;;36.20;21.33;;;2.20;1.00;;;;;;5137373;27;20756;-59
2022/01/25 10:05:23;;;;;;;38.77;22.77;;;2.20;1.00;;;;;;5135984;27;20462;-60
2022/01/25 10:07:57;;;;;;;36.50;20.00;;;2.10;92.60;;;;;;5136138;27;20804;-59
2022/01/25 10:10:25;;;;;;;35.37;21.63;;;2.20;99.90;;;;;;5136540;27;20520;-58
2022/01/25 10:12:52;;;;;;;39.40;21.40;;;2.20;99.90;;;;;;5137373;27;20452;-59
2022/01/25 10:15:19;;;;;;;35.23;21.53;;;2.20;1.00;;;;;;5136383;27;20518;-60
2022/01/25 10:17:46;;;;;;;38.47;21.83;;;2.30;99.90;;;;;;5136686;27;20490;-58
2022/01/25 10:20:29;;;;;;;39.03;25.00;;;2.30;99.90;;;;;;5138156;27;20906;-59
2022/01/25 10:22:59;;;;;;;41.87;23.90;;;2.30;1.00;;;;;;5138260;27;20464;-58
2022/01/25 10:25:32;;;;;;;42.00;23.17;;;2.30;1.00;;;;;;5137975;27;20454;-58
2022/01/25 10:28:03;;;;;;;43.30;25.47;;;2.40;99.90;;;;;;5136816;27;20555;-59
2022/01/25 10:30:47;;;;;;;40.30;23.03;;;2.40;99.90;;;;;;5137342;27;20465;-57
2022/01/25 10:33:24;;;;;;;43.20;22.97;;;2.40;99.90;;;;;;5138244;28;20459;-58
2022/01/25 10:35:52;;;;;;;38.10;25.50;;;2.50;99.90;;;;;;5137111;27;20786;-59
2022/01/25 10:38:22;;;;;;;38.80;22.70;;;2.40;20.30;;;;;;5137981;27;20450;-60
2022/01/25 10:40:57;;;;;;;41.37;23.73;;;2.50;99.90;;;;;;5137752;28;20498;-59
2022/01/25 10:43:25;;;;;;;39.87;22.90;;;2.40;1.00;;;;;;5136292;28;20500;-58
2022/01/25 10:46:06;;;;;;;38.83;23.17;;;2.50;99.90;;;;;;5137422;28;20914;-60
2022/01/25 10:48:33;;;;;;;37.63;22.90;;;2.50;99.90;;;;;;5138144;27;20837;-60
2022/01/25 10:51:09;;;;;;;37.90;21.83;;;2.50;99.90;;;;;;5138959;27;20466;-58
2022/01/25 10:53:38;;;;;;;38.50;23.70;;;2.60;99.90;;;;;;5140915;27;20479;-59
2022/01/25 10:56:07;;;;;;;40.47;24.83;;;2.60;1.00;;;;;;5137798;27;20471;-59
2022/01/25 10:58:38;;;;;;;36.47;22.53;;;2.70;99.90;;;;;;5141123;27;20830;-57
2022/01/25 11:01:09;;;;;;;43.50;26.57;;;2.70;99.90;;;;;;5141063;27;20958;-58
2022/01/25 11:03:39;;;;;;;46.10;27.13;;;2.70;1.00;;;;;;5141855;27;20468;-57
2022/01/25 11:06:16;;;;;;;43.00;25.87;;;2.70;99.90;;;;;;5134840;27;20489;-57
2022/01/25 11:08:48;;;;;;;35.83;22.93;;;2.70;99.90;;;;;;5136471;27;20775;-58
2022/01/25 11:11:24;;;;;;;38.53;23.10;;;2.70;1.00;;;;;;5141719;27;20511;-58
2022/01/25 11:13:53;;;;;;;39.90;22.80;;;2.70;99.90;;;;;;5140220;27;20896;-59
2022/01/25 11:16:20;;;;;;;38.27;22.80;;;2.70;5.70;;;;;;5139790;27;20437;-59
2022/01/25 11:18:47;;;;;;;37.97;23.63;;;2.70;16.20;;;;;;5141653;27;20733;-55
2022/01/25 11:21:17;;;;;;;37.00;22.70;;;2.70;1.00;;;;;;5141674;27;20954;-57
2022/01/25 11:23:44;;;;;;;42.03;23.47;;;2.70;1.00;;;;;;5141848;27;20462;-58
2022/01/25 11:26:13;;;;;;;39.73;22.90;;;2.70;1.00;;;;;;5141315;27;20947;-59
2022/01/25 11:28:44;;;;;;;34.90;20.63;;;2.60;99.90;;;;;;5141432;27;20494;-56
2022/01/25 11:31:18;;;;;;;37.23;21.73;;;2.60;13.80;;;;;;5141747;27;20451;-59
2022/01/25 11:33:54;;;;;;;40.17;24.77;;;2.50;1.00;;;;;;5120557;27;20502;-55
2022/01/25 11:36:24;;;;;;;39.80;22.93;;;2.60;96.70;;;;;;5140279;27;20511;-58
2022/01/25 11:38:56;;;;;;;36.87;21.87;;;2.60;99.90;;;;;;5141310;27;20459;-58
2022/01/25 11:41:28;;;;;;;33.50;20.70;;;2.70;91.10;;;;;;5141207;27;20539;-58
2022/01/25 11:44:17;;;;;;;40.00;25.17;;;2.70;1.00;;;;;;5136169;27;20470;-57
2022/01/25 11:46:49;;;;;;;36.80;20.43;;;2.80;1.00;;;;;;5140854;27;20526;-59
2022/01/25 11:49:19;;;;;;;32.10;20.70;;;2.60;99.90;;;;;;5140426;27;20470;-58
2022/01/25 11:52:06;;;;;;;38.83;21.50;;;2.70;1.00;;;;;;5140525;27;20441;-57
2022/01/25 11:54:40;;;;;;;29.90;19.20;;;2.80;99.90;;;;;;5141065;27;20437;-56
2022/01/25 11:57:18;;;;;;;31.80;20.73;;;2.90;99.90;;;;;;5141086;27;20726;-58
2022/01/25 11:59:51;;;;;;;34.50;21.60;;;2.80;19.00;;;;;;5140521;27;20564;-58
2022/01/25 12:02:40;;;;;;;34.03;21.30;;;3.00;99.90;;;;;;5139532;27;20560;-58
2022/01/25 12:05:11;;;;;;;34.47;19.67;;;3.10;1.00;;;;;;5140919;27;20823;-57
2022/01/25 12:07:42;;;;;;;30.40;20.30;;;3.10;1.00;;;;;;5140554;27;20458;-56
2022/01/25 12:10:31;;;;;;;29.97;19.47;;;3.20;1.00;;;;;;5139619;27;20451;-57
2022/01/25 12:13:15;;;;;;;31.23;20.97;;;3.30;1.00;;;;;;5127463;27;20887;-58
2022/01/25 12:15:42;;;;;;;34.60;20.30;;;3.40;1.00;;;;;;5124356;27;20433;-59
2022/01/25 12:18:11;;;;;;;34.00;19.13;;;3.40;99.90;;;;;;5140151;27;20437;-58
2022/01/25 12:20:51;;;;;;;33.17;20.93;;;3.30;99.90;;;;;;5140545;27;20493;-58
2022/01/25 12:23:44;;;;;;;30.83;20.00;;;3.40;99.90;;;;;;5140540;27;20912;-58
2022/01/25 12:26:34;;;;;;;29.70;19.87;;;3.40;99.90;;;;;;5127831;27;20541;-59
2022/01/25 12:29:32;;;;;;;32.80;19.80;;;3.30;99.90;;;;;;5139624;27;20519;-58
2022/01/25 12:32:19;;;;;;;34.97;20.30;;;3.40;99.90;;;;;;5138753;27;20466;-58
2022/01/25 12:35:15;;;;;;;31.13;18.97;;;3.30;99.90;;;;;;5138857;27;20518;-56
2022/01/25 12:37:58;;;;;;;32.90;20.00;;;3.30;99.90;;;;;;5087525;27;20617;-57
2022/01/25 12:41:04;;;;;;;33.23;20.20;;;3.40;99.90;;;;;;5140041;27;20490;-57
2022/01/25 12:43:38;;;;;;;34.97;20.30;;;3.50;99.90;;;;;;5139810;27;20535;-55
2022/01/25 12:46:09;;;;;;;29.60;18.40;;;3.50;99.90;;;;;;5139289;27;20471;-59
2022/01/25 12:48:40;;;;;;;28.97;19.50;;;3.50;99.90;;;;;;5139802;27;20737;-56
2022/01/25 12:51:10;;;;;;;46.50;25.90;;;3.40;99.90;;;;;;5140165;27;20872;-54
2022/01/25 12:53:39;;;;;;;31.53;20.00;;;3.50;99.90;;;;;;5139703;27;20900;-59
2022/01/25 12:56:12;;;;;;;32.03;20.13;;;3.60;99.90;;;;;;5138927;27;20966;-57
2022/01/25 12:58:40;;;;;;;30.20;18.60;;;3.40;99.90;;;;;;5139923;27;20485;-56
2022/01/25 13:01:10;;;;;;;31.93;20.67;;;3.00;99.90;;;;;;5140158;27;20486;-54
2022/01/25 13:03:42;;;;;;;31.43;20.50;;;3.10;99.90;;;;;;5139321;27;20463;-58
2022/01/25 13:06:14;;;;;;;38.13;20.87;;;3.20;99.90;;;;;;5138162;27;20896;-57
2022/01/25 13:08:48;;;;;;;43.63;25.60;;;3.30;99.90;;;;;;5138188;27;20466;-57
2022/01/25 13:11:49;;;;;;;54.17;30.60;;;3.20;99.90;;;;;;5138325;27;20437;-58
2022/01/25 13:14:31;;;;;;;35.23;21.93;;;3.20;99.90;;;;;;5137916;27;20860;-59
2022/01/25 13:17:00;;;;;;;32.97;19.20;;;3.30;99.90;;;;;;5138729;27;20469;-57
2022/01/25 13:19:35;;;;;;;38.07;19.67;;;3.30;99.90;;;;;;5137783;27;20876;-56
2022/01/25 13:22:07;;;;;;;34.37;19.77;;;3.30;99.90;;;;;;5136483;27;20559;-58
2022/01/25 13:24:45;;;;;;;33.00;19.57;;;3.20;99.90;;;;;;5132519;27;20470;-56
2022/01/25 13:27:17;;;;;;;39.73;23.10;;;3.30;99.90;;;;;;5136064;27;20537;-59
2022/01/25 13:32:37;;;;;;;32.10;21.80;;;3.30;99.90;;;;;;5136554;27;20472;-56
2022/01/25 13:35:17;;;;;;;28.80;18.77;;;3.10;99.90;;;;;;5137735;27;20531;-59
2022/01/25 13:38:00;;;;;;;35.43;18.90;;;3.10;99.90;;;;;;5135111;27;20549;-55
2022/01/25 13:40:35;;;;;;;31.97;19.83;;;3.10;99.90;;;;;;5136191;27;20529;-56
2022/01/25 13:46:04;;;;;;;35.70;19.47;;;3.00;99.90;;;;;;5098273;27;20423;-57
2022/01/25 13:48:31;;;;;;;34.77;19.93;;;3.00;99.90;;;;;;5138239;27;20458;-59
2022/01/25 13:51:01;;;;;;;33.50;19.57;;;2.90;99.90;;;;;;5138682;27;20486;-59
2022/01/25 13:53:29;;;;;;;31.70;20.97;;;2.80;99.90;;;;;;5138131;27;20465;-59
2022/01/25 13:55:58;;;;;;;31.30;19.60;;;2.90;99.90;;;;;;5137867;27;20498;-56
2022/01/25 13:58:31;;;;;;;32.63;18.63;;;2.90;99.90;;;;;;5138006;27;20697;-59
2022/01/25 14:01:02;;;;;;;31.83;17.10;;;3.00;99.90;;;;;;5138570;27;20777;-59
2022/01/25 14:03:38;;;;;;;28.93;17.47;;;3.00;99.90;;;;;;5137822;27;20458;-59
2022/01/25 14:06:21;;;;;;;32.03;18.67;;;3.10;99.90;;;;;;5138184;27;20458;-59
2022/01/25 14:08:51;;;;;;;32.17;17.17;;;3.10;99.90;;;;;;5138257;27;20515;-58
2022/01/25 14:11:25;;;;;;;32.10;19.13;;;3.00;99.90;;;;;;5138491;27;20487;-58